sensor_id;sensor_type;location;lat;lon;timestamp;P1;durP1;ratioP1;P2;durP2;ratioP2
51066;SDS011;37112;45.892;-123.962;2022-10-22T00:00:23;14.90;;;2.60;;
51066;SDS011;37112;45.892;-123.962;2022-10-22T00:02:53;19.20;;;3.30;;
51066;SDS011;37112;45.892;-123.962;2022-10-22T00:05:04;26.10;;;4.00;;
51066;SDS011;37112;45.892;-123.962;2022-10-22T00:07:16;16.90;;;2.80;;
51066;SDS011;37112;45.892;-123.962;2022-10-22T00:09:27;3.30;;;0.60;;
51066;SDS011;37112;45.892;-123.962;2022-10-22T00:11:37;2.50;;;0.30;;
51066;SDS011;37112;45.892;-123.962;2022-10-22T00:13:47;3.60;;;0.90;;
51066;SDS011;37112;45.892;-123.962;2022-10-22T00:15:58;1.50;;;0.30;;
51066;SDS011;37112;45.892;-123.962;2022-10-22T00:18:08;3.40;;;0.60;;
51066;SDS011;37112;45.892;-123.962;2022-10-22T00:20:18;1.30;;;0.50;;
51066;SDS011;37112;45.892;-123.962;2022-10-22T00:22:29;8.40;;;1.70;;
51066;SDS011;37112;45.892;-123.962;2022-10-22T00:24:39;7.10;;;1.10;;
51066;SDS011;37112;45.892;-123.962;2022-10-22T00:26:49;4.80;;;1.40;;
51066;SDS011;37112;45.892;-123.962;2022-10-22T00:28:59;16.70;;;2.50;;
51066;SDS011;37112;45.892;-123.962;2022-10-22T00:31:09;2.40;;;1.10;;
51066;SDS011;37112;45.892;-123.962;2022-10-22T00:33:20;6.80;;;0.70;;
51066;SDS011;37112;45.892;-123.962;2022-10-22T00:35:31;1.60;;;0.90;;
51066;SDS011;37112;45.892;-123.962;2022-10-22T00:37:42;1.10;;;0.30;;
51066;SDS011;37112;45.892;-123.962;2022-10-22T00:39:52;4.20;;;0.80;;
51066;SDS011;37112;45.892;-123.962;2022-10-22T00:42:02;13.20;;;3.20;;
51066;SDS011;37112;45.892;-123.962;2022-10-22T00:47:02;9.00;;;2.00;;
51066;SDS011;37112;45.892;-123.962;2022-10-22T00:49:13;4.30;;;1.10;;
51066;SDS011;37112;45.892;-123.962;2022-10-22T00:51:28;14.10;;;2.20;;
51066;SDS011;37112;45.892;-123.962;2022-10-22T00:53:40;24.50;;;4.30;;
51066;SDS011;37112;45.892;-123.962;2022-10-22T00:55:54;25.90;;;4.60;;
51066;SDS011;37112;45.892;-123.962;2022-10-22T00:58:05;22.40;;;3.70;;
51066;SDS011;37112;45.892;-123.962;2022-10-22T01:00:15;13.00;;;2.00;;
51066;SDS011;37112;45.892;-123.962;2022-10-22T01:02:26;15.60;;;3.40;;
51066;SDS011;37112;45.892;-123.962;2022-10-22T01:04:36;21.60;;;4.50;;
51066;SDS011;37112;45.892;-123.962;2022-10-22T01:06:46;6.40;;;1.20;;
51066;SDS011;37112;45.892;-123.962;2022-10-22T01:09:00;7.90;;;1.40;;
51066;SDS011;37112;45.892;-123.962;2022-10-22T01:11:18;9.20;;;1.50;;
51066;SDS011;37112;45.892;-123.962;2022-10-22T01:13:34;10.70;;;2.40;;
51066;SDS011;37112;45.892;-123.962;2022-10-22T01:15:55;26.20;;;3.90;;
51066;SDS011;37112;45.892;-123.962;2022-10-22T01:18:13;26.20;;;5.20;;
51066;SDS011;37112;45.892;-123.962;2022-10-22T01:20:37;25.70;;;4.40;;
51066;SDS011;37112;45.892;-123.962;2022-10-22T01:23:01;43.30;;;7.10;;
51066;SDS011;37112;45.892;-123.962;2022-10-22T01:25:26;29.70;;;6.00;;
51066;SDS011;37112;45.892;-123.962;2022-10-22T01:27:47;31.50;;;6.20;;
51066;SDS011;37112;45.892;-123.962;2022-10-22T01:30:08;45.30;;;8.00;;
51066;SDS011;37112;45.892;-123.962;2022-10-22T01:32:21;33.50;;;5.50;;
51066;SDS011;37112;45.892;-123.962;2022-10-22T01:34:33;27.70;;;6.10;;
51066;SDS011;37112;45.892;-123.962;2022-10-22T01:38:54;37.70;;;7.30;;
51066;SDS011;37112;45.892;-123.962;2022-10-22T01:43:16;36.70;;;5.80;;
51066;SDS011;37112;45.892;-123.962;2022-10-22T01:45:26;28.50;;;4.00;;
51066;SDS011;37112;45.892;-123.962;2022-10-22T01:47:41;21.40;;;4.10;;
51066;SDS011;37112;45.892;-123.962;2022-10-22T01:50:07;14.50;;;2.50;;
51066;SDS011;37112;45.892;-123.962;2022-10-22T01:52:32;16.00;;;2.40;;
51066;SDS011;37112;45.892;-123.962;2022-10-22T01:54:55;7.10;;;1.70;;
51066;SDS011;37112;45.892;-123.962;2022-10-22T01:57:18;12.90;;;2.10;;
51066;SDS011;37112;45.892;-123.962;2022-10-22T01:59:41;19.30;;;3.80;;
51066;SDS011;37112;45.892;-123.962;2022-10-22T02:01:57;17.10;;;3.40;;
51066;SDS011;37112;45.892;-123.962;2022-10-22T02:04:12;18.10;;;3.30;;
51066;SDS011;37112;45.892;-123.962;2022-10-22T02:06:27;25.30;;;3.90;;
51066;SDS011;37112;45.892;-123.962;2022-10-22T02:08:40;20.20;;;4.30;;
51066;SDS011;37112;45.892;-123.962;2022-10-22T02:10:51;18.90;;;3.40;;
51066;SDS011;37112;45.892;-123.962;2022-10-22T02:13:04;12.00;;;2.80;;
51066;SDS011;37112;45.892;-123.962;2022-10-22T02:15:20;37.90;;;5.40;;
51066;SDS011;37112;45.892;-123.962;2022-10-22T02:17:34;30.10;;;6.10;;
51066;SDS011;37112;45.892;-123.962;2022-10-22T02:19:47;20.30;;;4.60;;
51066;SDS011;37112;45.892;-123.962;2022-10-22T02:22:01;20.50;;;3.80;;
51066;SDS011;37112;45.892;-123.962;2022-10-22T02:24:12;31.30;;;5.10;;
51066;SDS011;37112;45.892;-123.962;2022-10-22T02:26:24;55.60;;;12.80;;
51066;SDS011;37112;45.892;-123.962;2022-10-22T02:28:41;62.10;;;14.40;;
51066;SDS011;37112;45.892;-123.962;2022-10-22T02:30:59;58.60;;;14.40;;
51066;SDS011;37112;45.892;-123.962;2022-10-22T02:33:15;27.70;;;5.00;;
51066;SDS011;37112;45.892;-123.962;2022-10-22T02:35:28;25.30;;;6.50;;
51066;SDS011;37112;45.892;-123.962;2022-10-22T02:37:39;41.10;;;11.50;;
51066;SDS011;37112;45.892;-123.962;2022-10-22T02:39:50;20.30;;;4.70;;
51066;SDS011;37112;45.892;-123.962;2022-10-22T02:42:02;10.80;;;2.40;;
51066;SDS011;37112;45.892;-123.962;2022-10-22T02:44:13;1.90;;;0.50;;
51066;SDS011;37112;45.892;-123.962;2022-10-22T02:46:27;0.50;;;0.40;;
51066;SDS011;37112;45.892;-123.962;2022-10-22T02:48:39;1.00;;;0.30;;
51066;SDS011;37112;45.892;-123.962;2022-10-22T02:50:51;0.40;;;0.30;;
51066;SDS011;37112;45.892;-123.962;2022-10-22T02:53:01;0.30;;;0.30;;
51066;SDS011;37112;45.892;-123.962;2022-10-22T02:55:11;0.70;;;0.30;;
51066;SDS011;37112;45.892;-123.962;2022-10-22T02:57:21;0.40;;;0.40;;
51066;SDS011;37112;45.892;-123.962;2022-10-22T02:59:32;0.30;;;0.30;;
51066;SDS011;37112;45.892;-123.962;2022-10-22T03:01:44;0.30;;;0.30;;
51066;SDS011;37112;45.892;-123.962;2022-10-22T03:03:55;0.20;;;0.20;;
51066;SDS011;37112;45.892;-123.962;2022-10-22T03:06:05;0.20;;;0.20;;
51066;SDS011;37112;45.892;-123.962;2022-10-22T03:08:16;0.20;;;0.20;;
51066;SDS011;37112;45.892;-123.962;2022-10-22T03:10:26;0.60;;;0.20;;
51066;SDS011;37112;45.892;-123.962;2022-10-22T03:12:37;0.60;;;0.20;;
51066;SDS011;37112;45.892;-123.962;2022-10-22T03:14:48;0.20;;;0.20;;
51066;SDS011;37112;45.892;-123.962;2022-10-22T03:16:59;0.30;;;0.30;;
51066;SDS011;37112;45.892;-123.962;2022-10-22T03:19:09;0.40;;;0.30;;
51066;SDS011;37112;45.892;-123.962;2022-10-22T03:21:22;0.40;;;0.40;;
51066;SDS011;37112;45.892;-123.962;2022-10-22T03:23:38;2.00;;;0.40;;
51066;SDS011;37112;45.892;-123.962;2022-10-22T03:25:50;1.70;;;0.30;;
51066;SDS011;37112;45.892;-123.962;2022-10-22T03:28:00;0.50;;;0.30;;
51066;SDS011;37112;45.892;-123.962;2022-10-22T03:30:14;0.70;;;0.30;;
51066;SDS011;37112;45.892;-123.962;2022-10-22T03:32:24;1.10;;;0.50;;
51066;SDS011;37112;45.892;-123.962;2022-10-22T03:34:34;0.70;;;0.50;;
51066;SDS011;37112;45.892;-123.962;2022-10-22T03:36:44;1.00;;;0.40;;
51066;SDS011;37112;45.892;-123.962;2022-10-22T03:38:55;0.60;;;0.40;;
51066;SDS011;37112;45.892;-123.962;2022-10-22T03:41:05;0.40;;;0.40;;
51066;SDS011;37112;45.892;-123.962;2022-10-22T03:43:16;1.80;;;0.40;;
51066;SDS011;37112;45.892;-123.962;2022-10-22T03:45:26;0.70;;;0.40;;
51066;SDS011;37112;45.892;-123.962;2022-10-22T03:47:36;0.90;;;0.60;;
51066;SDS011;37112;45.892;-123.962;2022-10-22T03:49:47;2.90;;;0.60;;
51066;SDS011;37112;45.892;-123.962;2022-10-22T03:51:57;1.30;;;0.50;;
51066;SDS011;37112;45.892;-123.962;2022-10-22T03:54:14;2.00;;;0.50;;
51066;SDS011;37112;45.892;-123.962;2022-10-22T03:56:25;1.10;;;0.50;;
51066;SDS011;37112;45.892;-123.962;2022-10-22T03:58:35;1.20;;;0.60;;
51066;SDS011;37112;45.892;-123.962;2022-10-22T04:00:46;1.30;;;0.40;;
51066;SDS011;37112;45.892;-123.962;2022-10-22T04:02:56;0.50;;;0.30;;
51066;SDS011;37112;45.892;-123.962;2022-10-22T04:05:07;1.00;;;0.60;;
51066;SDS011;37112;45.892;-123.962;2022-10-22T04:07:18;1.90;;;0.40;;
51066;SDS011;37112;45.892;-123.962;2022-10-22T04:09:29;1.80;;;0.40;;
51066;SDS011;37112;45.892;-123.962;2022-10-22T04:11:39;2.10;;;0.50;;
51066;SDS011;37112;45.892;-123.962;2022-10-22T04:13:49;0.40;;;0.40;;
51066;SDS011;37112;45.892;-123.962;2022-10-22T04:16:07;0.50;;;0.50;;
51066;SDS011;37112;45.892;-123.962;2022-10-22T04:18:19;0.40;;;0.40;;
51066;SDS011;37112;45.892;-123.962;2022-10-22T04:20:30;0.50;;;0.50;;
51066;SDS011;37112;45.892;-123.962;2022-10-22T04:22:40;1.30;;;0.70;;
51066;SDS011;37112;45.892;-123.962;2022-10-22T04:24:50;0.70;;;0.40;;
51066;SDS011;37112;45.892;-123.962;2022-10-22T04:27:01;0.90;;;0.70;;
51066;SDS011;37112;45.892;-123.962;2022-10-22T04:29:11;0.70;;;0.50;;
51066;SDS011;37112;45.892;-123.962;2022-10-22T04:31:22;0.50;;;0.50;;
51066;SDS011;37112;45.892;-123.962;2022-10-22T04:33:33;1.20;;;0.60;;
51066;SDS011;37112;45.892;-123.962;2022-10-22T04:35:44;2.60;;;0.40;;
51066;SDS011;37112;45.892;-123.962;2022-10-22T04:37:54;0.70;;;0.50;;
51066;SDS011;37112;45.892;-123.962;2022-10-22T04:40:05;1.10;;;0.70;;
51066;SDS011;37112;45.892;-123.962;2022-10-22T04:44:25;0.60;;;0.40;;
51066;SDS011;37112;45.892;-123.962;2022-10-22T04:46:35;0.50;;;0.50;;
51066;SDS011;37112;45.892;-123.962;2022-10-22T04:48:45;0.30;;;0.30;;
51066;SDS011;37112;45.892;-123.962;2022-10-22T04:50:57;0.70;;;0.40;;
51066;SDS011;37112;45.892;-123.962;2022-10-22T04:53:07;0.40;;;0.40;;
51066;SDS011;37112;45.892;-123.962;2022-10-22T04:55:18;2.30;;;0.60;;
51066;SDS011;37112;45.892;-123.962;2022-10-22T04:57:29;0.40;;;0.40;;
51066;SDS011;37112;45.892;-123.962;2022-10-22T04:59:41;0.60;;;0.40;;
51066;SDS011;37112;45.892;-123.962;2022-10-22T05:01:51;0.30;;;0.30;;
51066;SDS011;37112;45.892;-123.962;2022-10-22T05:04:01;0.30;;;0.30;;
51066;SDS011;37112;45.892;-123.962;2022-10-22T05:06:12;0.30;;;0.30;;
51066;SDS011;37112;45.892;-123.962;2022-10-22T05:08:23;0.30;;;0.30;;
51066;SDS011;37112;45.892;-123.962;2022-10-22T05:10:33;0.70;;;0.40;;
51066;SDS011;37112;45.892;-123.962;2022-10-22T05:12:43;0.30;;;0.30;;
51066;SDS011;37112;45.892;-123.962;2022-10-22T05:14:53;0.40;;;0.40;;
51066;SDS011;37112;45.892;-123.962;2022-10-22T05:17:03;0.90;;;0.40;;
51066;SDS011;37112;45.892;-123.962;2022-10-22T05:19:15;1.50;;;0.80;;
51066;SDS011;37112;45.892;-123.962;2022-10-22T05:21:28;0.50;;;0.50;;
51066;SDS011;37112;45.892;-123.962;2022-10-22T05:23:39;0.70;;;0.40;;
51066;SDS011;37112;45.892;-123.962;2022-10-22T05:25:49;0.70;;;0.60;;
51066;SDS011;37112;45.892;-123.962;2022-10-22T05:27:59;14.00;;;6.50;;
51066;SDS011;37112;45.892;-123.962;2022-10-22T05:30:10;1.30;;;0.70;;
51066;SDS011;37112;45.892;-123.962;2022-10-22T05:32:23;0.50;;;0.50;;
51066;SDS011;37112;45.892;-123.962;2022-10-22T05:34:34;1.10;;;0.80;;
51066;SDS011;37112;45.892;-123.962;2022-10-22T05:36:44;3.40;;;1.80;;
51066;SDS011;37112;45.892;-123.962;2022-10-22T05:38:55;1.50;;;1.10;;
51066;SDS011;37112;45.892;-123.962;2022-10-22T05:41:06;1.00;;;0.80;;
51066;SDS011;37112;45.892;-123.962;2022-10-22T05:45:26;0.80;;;0.50;;
51066;SDS011;37112;45.892;-123.962;2022-10-22T05:47:36;3.20;;;0.60;;
51066;SDS011;37112;45.892;-123.962;2022-10-22T05:49:46;2.70;;;1.10;;
51066;SDS011;37112;45.892;-123.962;2022-10-22T05:51:56;2.50;;;1.20;;
51066;SDS011;37112;45.892;-123.962;2022-10-22T05:54:06;0.90;;;0.80;;
51066;SDS011;37112;45.892;-123.962;2022-10-22T05:56:22;1.20;;;0.70;;
51066;SDS011;37112;45.892;-123.962;2022-10-22T05:58:33;0.60;;;0.60;;
51066;SDS011;37112;45.892;-123.962;2022-10-22T06:00:44;2.00;;;0.60;;
51066;SDS011;37112;45.892;-123.962;2022-10-22T06:02:54;3.40;;;1.00;;
51066;SDS011;37112;45.892;-123.962;2022-10-22T06:05:05;10.20;;;3.10;;
51066;SDS011;37112;45.892;-123.962;2022-10-22T06:07:15;5.00;;;1.60;;
51066;SDS011;37112;45.892;-123.962;2022-10-22T06:09:26;4.70;;;1.00;;
51066;SDS011;37112;45.892;-123.962;2022-10-22T06:11:38;4.30;;;0.80;;
51066;SDS011;37112;45.892;-123.962;2022-10-22T06:13:49;2.80;;;1.60;;
51066;SDS011;37112;45.892;-123.962;2022-10-22T06:18:08;2.90;;;0.90;;
51066;SDS011;37112;45.892;-123.962;2022-10-22T06:20:18;3.70;;;1.60;;
51066;SDS011;37112;45.892;-123.962;2022-10-22T06:22:29;3.30;;;0.90;;
51066;SDS011;37112;45.892;-123.962;2022-10-22T06:24:39;4.20;;;0.80;;
51066;SDS011;37112;45.892;-123.962;2022-10-22T06:26:50;3.30;;;1.10;;
51066;SDS011;37112;45.892;-123.962;2022-10-22T06:29:00;2.80;;;1.10;;
51066;SDS011;37112;45.892;-123.962;2022-10-22T06:31:10;5.80;;;1.40;;
51066;SDS011;37112;45.892;-123.962;2022-10-22T06:33:20;10.40;;;1.40;;
51066;SDS011;37112;45.892;-123.962;2022-10-22T06:35:30;6.40;;;1.30;;
51066;SDS011;37112;45.892;-123.962;2022-10-22T06:37:41;4.20;;;0.90;;
51066;SDS011;37112;45.892;-123.962;2022-10-22T06:39:52;4.00;;;1.00;;
51066;SDS011;37112;45.892;-123.962;2022-10-22T06:42:02;2.60;;;0.70;;
51066;SDS011;37112;45.892;-123.962;2022-10-22T06:44:13;2.30;;;0.70;;
51066;SDS011;37112;45.892;-123.962;2022-10-22T06:46:25;1.90;;;1.00;;
51066;SDS011;37112;45.892;-123.962;2022-10-22T06:48:36;4.00;;;1.20;;
51066;SDS011;37112;45.892;-123.962;2022-10-22T06:50:47;3.60;;;0.70;;
51066;SDS011;37112;45.892;-123.962;2022-10-22T06:52:57;1.80;;;0.90;;
51066;SDS011;37112;45.892;-123.962;2022-10-22T06:55:08;2.60;;;1.10;;
51066;SDS011;37112;45.892;-123.962;2022-10-22T06:57:18;2.20;;;1.10;;
51066;SDS011;37112;45.892;-123.962;2022-10-22T06:59:29;2.70;;;0.80;;
51066;SDS011;37112;45.892;-123.962;2022-10-22T07:01:39;1.90;;;0.80;;
51066;SDS011;37112;45.892;-123.962;2022-10-22T07:03:50;1.10;;;0.90;;
51066;SDS011;37112;45.892;-123.962;2022-10-22T07:06:01;3.50;;;1.70;;
51066;SDS011;37112;45.892;-123.962;2022-10-22T07:08:13;3.40;;;0.90;;
51066;SDS011;37112;45.892;-123.962;2022-10-22T07:10:24;0.70;;;0.60;;
51066;SDS011;37112;45.892;-123.962;2022-10-22T07:12:35;1.90;;;0.50;;
51066;SDS011;37112;45.892;-123.962;2022-10-22T07:14:46;0.80;;;0.50;;
51066;SDS011;37112;45.892;-123.962;2022-10-22T07:16:57;1.40;;;0.60;;
51066;SDS011;37112;45.892;-123.962;2022-10-22T07:19:07;1.80;;;1.70;;
51066;SDS011;37112;45.892;-123.962;2022-10-22T07:21:18;1.00;;;0.90;;
51066;SDS011;37112;45.892;-123.962;2022-10-22T07:23:28;2.20;;;0.90;;
51066;SDS011;37112;45.892;-123.962;2022-10-22T07:25:39;4.70;;;1.00;;
51066;SDS011;37112;45.892;-123.962;2022-10-22T07:27:49;2.30;;;0.50;;
51066;SDS011;37112;45.892;-123.962;2022-10-22T07:29:59;2.10;;;0.80;;
51066;SDS011;37112;45.892;-123.962;2022-10-22T07:32:10;1.80;;;0.70;;
51066;SDS011;37112;45.892;-123.962;2022-10-22T07:34:23;0.60;;;0.50;;
51066;SDS011;37112;45.892;-123.962;2022-10-22T07:36:34;6.20;;;0.70;;
51066;SDS011;37112;45.892;-123.962;2022-10-22T07:38:44;5.20;;;0.90;;
51066;SDS011;37112;45.892;-123.962;2022-10-22T07:40:56;4.30;;;1.50;;
51066;SDS011;37112;45.892;-123.962;2022-10-22T07:43:06;3.50;;;1.10;;
51066;SDS011;37112;45.892;-123.962;2022-10-22T07:45:16;2.00;;;0.90;;
51066;SDS011;37112;45.892;-123.962;2022-10-22T07:47:26;1.80;;;1.40;;
51066;SDS011;37112;45.892;-123.962;2022-10-22T07:49:37;2.00;;;1.30;;
51066;SDS011;37112;45.892;-123.962;2022-10-22T07:51:48;1.60;;;1.10;;
51066;SDS011;37112;45.892;-123.962;2022-10-22T07:53:58;5.90;;;1.60;;
51066;SDS011;37112;45.892;-123.962;2022-10-22T07:56:08;3.70;;;1.30;;
51066;SDS011;37112;45.892;-123.962;2022-10-22T07:58:19;3.10;;;1.50;;
51066;SDS011;37112;45.892;-123.962;2022-10-22T08:00:30;3.90;;;1.00;;
51066;SDS011;37112;45.892;-123.962;2022-10-22T08:02:40;2.20;;;1.10;;
51066;SDS011;37112;45.892;-123.962;2022-10-22T08:04:51;2.90;;;1.40;;
51066;SDS011;37112;45.892;-123.962;2022-10-22T08:07:01;1.90;;;1.10;;
51066;SDS011;37112;45.892;-123.962;2022-10-22T08:09:12;6.90;;;1.20;;
51066;SDS011;37112;45.892;-123.962;2022-10-22T08:11:22;6.50;;;2.20;;
51066;SDS011;37112;45.892;-123.962;2022-10-22T08:13:33;1.80;;;0.90;;
51066;SDS011;37112;45.892;-123.962;2022-10-22T08:15:49;3.00;;;0.60;;
51066;SDS011;37112;45.892;-123.962;2022-10-22T08:18:02;3.20;;;1.00;;
51066;SDS011;37112;45.892;-123.962;2022-10-22T08:20:13;3.00;;;1.00;;
51066;SDS011;37112;45.892;-123.962;2022-10-22T08:22:23;2.70;;;1.00;;
51066;SDS011;37112;45.892;-123.962;2022-10-22T08:24:33;4.20;;;1.50;;
51066;SDS011;37112;45.892;-123.962;2022-10-22T08:26:43;2.00;;;0.70;;
51066;SDS011;37112;45.892;-123.962;2022-10-22T08:28:53;0.60;;;0.60;;
51066;SDS011;37112;45.892;-123.962;2022-10-22T08:31:04;1.10;;;0.60;;
51066;SDS011;37112;45.892;-123.962;2022-10-22T08:33:15;0.70;;;0.50;;
51066;SDS011;37112;45.892;-123.962;2022-10-22T08:35:25;1.70;;;1.20;;
51066;SDS011;37112;45.892;-123.962;2022-10-22T08:37:35;1.50;;;0.50;;
51066;SDS011;37112;45.892;-123.962;2022-10-22T08:39:46;1.00;;;0.80;;
51066;SDS011;37112;45.892;-123.962;2022-10-22T08:41:58;2.00;;;0.70;;
51066;SDS011;37112;45.892;-123.962;2022-10-22T08:44:27;1.90;;;0.90;;
51066;SDS011;37112;45.892;-123.962;2022-10-22T08:47:00;1.90;;;0.60;;
51066;SDS011;37112;45.892;-123.962;2022-10-22T08:49:27;2.70;;;1.20;;
51066;SDS011;37112;45.892;-123.962;2022-10-22T08:51:45;0.80;;;0.70;;
51066;SDS011;37112;45.892;-123.962;2022-10-22T08:56:25;1.10;;;0.70;;
51066;SDS011;37112;45.892;-123.962;2022-10-22T08:58:39;1.30;;;0.60;;
51066;SDS011;37112;45.892;-123.962;2022-10-22T09:00:57;3.10;;;1.60;;
51066;SDS011;37112;45.892;-123.962;2022-10-22T09:03:15;16.10;;;2.30;;
51066;SDS011;37112;45.892;-123.962;2022-10-22T09:05:50;2.40;;;1.00;;
51066;SDS011;37112;45.892;-123.962;2022-10-22T09:08:10;0.70;;;0.60;;
51066;SDS011;37112;45.892;-123.962;2022-10-22T09:10:24;1.50;;;0.60;;
51066;SDS011;37112;45.892;-123.962;2022-10-22T09:12:39;0.80;;;0.70;;
51066;SDS011;37112;45.892;-123.962;2022-10-22T09:14:49;5.00;;;0.80;;
51066;SDS011;37112;45.892;-123.962;2022-10-22T09:17:15;3.30;;;0.70;;
51066;SDS011;37112;45.892;-123.962;2022-10-22T09:19:34;3.60;;;1.00;;
51066;SDS011;37112;45.892;-123.962;2022-10-22T09:21:58;3.50;;;2.40;;
51066;SDS011;37112;45.892;-123.962;2022-10-22T09:24:15;3.80;;;0.90;;
51066;SDS011;37112;45.892;-123.962;2022-10-22T09:26:37;4.90;;;0.80;;
51066;SDS011;37112;45.892;-123.962;2022-10-22T09:28:50;3.60;;;0.80;;
51066;SDS011;37112;45.892;-123.962;2022-10-22T09:31:00;3.90;;;0.80;;
51066;SDS011;37112;45.892;-123.962;2022-10-22T09:33:19;6.50;;;0.90;;
51066;SDS011;37112;45.892;-123.962;2022-10-22T09:35:31;4.30;;;1.00;;
51066;SDS011;37112;45.892;-123.962;2022-10-22T09:37:52;9.00;;;1.00;;
51066;SDS011;37112;45.892;-123.962;2022-10-22T09:40:04;4.60;;;1.10;;
51066;SDS011;37112;45.892;-123.962;2022-10-22T09:42:20;7.00;;;1.00;;
51066;SDS011;37112;45.892;-123.962;2022-10-22T09:44:33;4.60;;;0.70;;
51066;SDS011;37112;45.892;-123.962;2022-10-22T09:46:49;3.80;;;1.10;;
51066;SDS011;37112;45.892;-123.962;2022-10-22T09:49:02;4.80;;;1.00;;
51066;SDS011;37112;45.892;-123.962;2022-10-22T09:51:19;5.80;;;1.10;;
51066;SDS011;37112;45.892;-123.962;2022-10-22T09:53:34;5.70;;;1.00;;
51066;SDS011;37112;45.892;-123.962;2022-10-22T09:55:52;5.10;;;1.40;;
51066;SDS011;37112;45.892;-123.962;2022-10-22T09:58:06;5.50;;;1.30;;
51066;SDS011;37112;45.892;-123.962;2022-10-22T10:00:20;2.30;;;0.60;;
51066;SDS011;37112;45.892;-123.962;2022-10-22T10:02:31;4.00;;;0.60;;
51066;SDS011;37112;45.892;-123.962;2022-10-22T10:04:45;3.80;;;0.80;;
51066;SDS011;37112;45.892;-123.962;2022-10-22T10:06:57;2.90;;;0.70;;
51066;SDS011;37112;45.892;-123.962;2022-10-22T10:09:09;3.40;;;0.50;;
51066;SDS011;37112;45.892;-123.962;2022-10-22T10:11:26;3.60;;;0.70;;
51066;SDS011;37112;45.892;-123.962;2022-10-22T10:13:45;2.00;;;0.70;;
51066;SDS011;37112;45.892;-123.962;2022-10-22T10:16:00;1.30;;;0.40;;
51066;SDS011;37112;45.892;-123.962;2022-10-22T10:18:24;1.60;;;0.70;;
51066;SDS011;37112;45.892;-123.962;2022-10-22T10:20:48;1.10;;;0.60;;
51066;SDS011;37112;45.892;-123.962;2022-10-22T10:23:07;3.40;;;1.00;;
51066;SDS011;37112;45.892;-123.962;2022-10-22T10:25:34;4.60;;;1.40;;
51066;SDS011;37112;45.892;-123.962;2022-10-22T10:27:57;5.00;;;0.70;;
51066;SDS011;37112;45.892;-123.962;2022-10-22T10:30:21;1.00;;;0.50;;
51066;SDS011;37112;45.892;-123.962;2022-10-22T10:32:37;3.10;;;0.60;;
51066;SDS011;37112;45.892;-123.962;2022-10-22T10:35:14;1.40;;;0.40;;
51066;SDS011;37112;45.892;-123.962;2022-10-22T10:37:29;1.20;;;0.60;;
51066;SDS011;37112;45.892;-123.962;2022-10-22T10:39:46;7.20;;;0.90;;
51066;SDS011;37112;45.892;-123.962;2022-10-22T10:42:16;4.40;;;0.60;;
51066;SDS011;37112;45.892;-123.962;2022-10-22T10:44:49;3.30;;;0.60;;
51066;SDS011;37112;45.892;-123.962;2022-10-22T10:47:14;1.70;;;0.50;;
51066;SDS011;37112;45.892;-123.962;2022-10-22T10:49:37;3.80;;;0.70;;
51066;SDS011;37112;45.892;-123.962;2022-10-22T10:51:52;0.60;;;0.50;;
51066;SDS011;37112;45.892;-123.962;2022-10-22T10:54:10;4.10;;;0.60;;
51066;SDS011;37112;45.892;-123.962;2022-10-22T10:56:41;1.50;;;0.50;;
51066;SDS011;37112;45.892;-123.962;2022-10-22T10:59:07;1.10;;;0.60;;
51066;SDS011;37112;45.892;-123.962;2022-10-22T11:01:23;2.60;;;0.50;;
51066;SDS011;37112;45.892;-123.962;2022-10-22T11:03:46;0.50;;;0.40;;
51066;SDS011;37112;45.892;-123.962;2022-10-22T11:06:07;1.30;;;0.50;;
51066;SDS011;37112;45.892;-123.962;2022-10-22T11:08:23;1.10;;;0.70;;
51066;SDS011;37112;45.892;-123.962;2022-10-22T11:10:36;2.70;;;0.60;;
51066;SDS011;37112;45.892;-123.962;2022-10-22T11:12:51;1.70;;;0.50;;
51066;SDS011;37112;45.892;-123.962;2022-10-22T11:15:05;1.60;;;0.50;;
51066;SDS011;37112;45.892;-123.962;2022-10-22T11:17:23;1.50;;;0.50;;
51066;SDS011;37112;45.892;-123.962;2022-10-22T11:19:39;2.20;;;0.60;;
51066;SDS011;37112;45.892;-123.962;2022-10-22T11:22:02;0.80;;;0.50;;
51066;SDS011;37112;45.892;-123.962;2022-10-22T11:24:21;0.50;;;0.50;;
51066;SDS011;37112;45.892;-123.962;2022-10-22T11:26:36;2.70;;;1.20;;
51066;SDS011;37112;45.892;-123.962;2022-10-22T11:28:51;4.30;;;0.70;;
51066;SDS011;37112;45.892;-123.962;2022-10-22T11:31:05;4.70;;;0.50;;
51066;SDS011;37112;45.892;-123.962;2022-10-22T11:33:22;1.40;;;0.50;;
51066;SDS011;37112;45.892;-123.962;2022-10-22T11:35:36;0.80;;;0.40;;
51066;SDS011;37112;45.892;-123.962;2022-10-22T11:37:48;0.80;;;0.40;;
51066;SDS011;37112;45.892;-123.962;2022-10-22T11:42:15;0.50;;;0.40;;
51066;SDS011;37112;45.892;-123.962;2022-10-22T11:44:27;1.60;;;0.50;;
51066;SDS011;37112;45.892;-123.962;2022-10-22T11:46:42;0.40;;;0.40;;
51066;SDS011;37112;45.892;-123.962;2022-10-22T11:49:13;0.50;;;0.50;;
51066;SDS011;37112;45.892;-123.962;2022-10-22T11:51:36;2.30;;;0.40;;
51066;SDS011;37112;45.892;-123.962;2022-10-22T11:53:48;1.30;;;0.50;;
51066;SDS011;37112;45.892;-123.962;2022-10-22T11:56:20;1.90;;;0.70;;
51066;SDS011;37112;45.892;-123.962;2022-10-22T11:58:38;3.10;;;0.50;;
51066;SDS011;37112;45.892;-123.962;2022-10-22T12:00:49;0.40;;;0.40;;
51066;SDS011;37112;45.892;-123.962;2022-10-22T12:03:03;1.30;;;0.40;;
51066;SDS011;37112;45.892;-123.962;2022-10-22T12:07:54;0.90;;;0.40;;
51066;SDS011;37112;45.892;-123.962;2022-10-22T12:10:12;2.50;;;0.40;;
51066;SDS011;37112;45.892;-123.962;2022-10-22T12:12:27;0.30;;;0.30;;
51066;SDS011;37112;45.892;-123.962;2022-10-22T12:14:52;1.50;;;0.40;;
51066;SDS011;37112;45.892;-123.962;2022-10-22T12:17:04;2.00;;;1.10;;
51066;SDS011;37112;45.892;-123.962;2022-10-22T12:19:23;6.40;;;2.20;;
51066;SDS011;37112;45.892;-123.962;2022-10-22T12:21:36;0.90;;;0.50;;
51066;SDS011;37112;45.892;-123.962;2022-10-22T12:23:48;1.40;;;0.40;;
51066;SDS011;37112;45.892;-123.962;2022-10-22T12:26:01;1.10;;;0.50;;
51066;SDS011;37112;45.892;-123.962;2022-10-22T12:28:12;0.60;;;0.50;;
51066;SDS011;37112;45.892;-123.962;2022-10-22T12:30:24;1.00;;;0.80;;
51066;SDS011;37112;45.892;-123.962;2022-10-22T12:32:37;2.00;;;0.70;;
51066;SDS011;37112;45.892;-123.962;2022-10-22T12:34:48;3.40;;;0.90;;
51066;SDS011;37112;45.892;-123.962;2022-10-22T12:36:59;8.20;;;0.90;;
51066;SDS011;37112;45.892;-123.962;2022-10-22T12:39:14;1.90;;;0.50;;
51066;SDS011;37112;45.892;-123.962;2022-10-22T12:41:30;2.90;;;0.90;;
51066;SDS011;37112;45.892;-123.962;2022-10-22T12:43:41;6.30;;;0.90;;
51066;SDS011;37112;45.892;-123.962;2022-10-22T12:45:51;7.50;;;1.70;;
51066;SDS011;37112;45.892;-123.962;2022-10-22T12:48:03;8.10;;;1.50;;
51066;SDS011;37112;45.892;-123.962;2022-10-22T12:50:22;11.40;;;1.30;;
51066;SDS011;37112;45.892;-123.962;2022-10-22T12:52:38;10.20;;;2.00;;
51066;SDS011;37112;45.892;-123.962;2022-10-22T12:54:49;42.90;;;7.20;;
51066;SDS011;37112;45.892;-123.962;2022-10-22T12:57:00;37.40;;;6.70;;
51066;SDS011;37112;45.892;-123.962;2022-10-22T12:59:12;26.70;;;6.10;;
51066;SDS011;37112;45.892;-123.962;2022-10-22T13:01:28;27.10;;;5.00;;
51066;SDS011;37112;45.892;-123.962;2022-10-22T13:03:43;22.20;;;3.90;;
51066;SDS011;37112;45.892;-123.962;2022-10-22T13:05:54;19.20;;;2.70;;
51066;SDS011;37112;45.892;-123.962;2022-10-22T13:08:19;11.50;;;2.00;;